Time;durP1;ratioP1;P1;durP2;ratioP2;P2;SDS_P1;SDS_P2;PMS_P1;PMS_P2;Temp;Humidity;BMP_temperature;BMP_pressure;BME280_temperature;BME280_humidity;BME280_pressure;Samples;Min_cycle;Max_cycle;Signal;HPM_P1;HPM_P2
2022/09/12 00:01:07;;;;;;;6.13;4.65;;;16.60;75.30;;;;;;5073749;28;20029;-73
2022/09/12 00:03:33;;;;;;;6.65;5.15;;;16.40;76.00;;;;;;5073729;28;20031;-73
2022/09/12 00:05:59;;;;;;;7.97;5.20;;;16.40;75.90;;;;;;5073432;28;20049;-73
2022/09/12 00:08:24;;;;;;;8.52;5.78;;;16.30;76.00;;;;;;5073542;28;20040;-72
2022/09/12 00:10:50;;;;;;;8.57;5.57;;;16.30;76.00;;;;;;5073578;28;20033;-73
2022/09/12 00:13:16;;;;;;;9.02;5.68;;;16.30;75.80;;;;;;5073524;28;20018;-73
2022/09/12 00:15:43;;;;;;;12.20;7.20;;;16.20;75.80;;;;;;5073493;28;20430;-73
2022/09/12 00:18:13;;;;;;;12.15;7.80;;;16.20;76.00;;;;;;5073494;28;20025;-73
2022/09/12 00:20:43;;;;;;;9.50;6.70;;;16.20;76.20;;;;;;5073457;28;20051;-72
2022/09/12 00:23:09;;;;;;;11.18;6.65;;;16.30;75.60;;;;;;5073370;28;20029;-72
2022/09/12 00:25:39;;;;;;;12.55;7.68;;;16.30;75.70;;;;;;5073499;28;20055;-72
2022/09/12 00:28:05;;;;;;;10.93;7.25;;;16.40;75.70;;;;;;5073195;28;20025;-72
2022/09/12 00:30:31;;;;;;;9.10;6.40;;;16.50;75.30;;;;;;5073310;28;20027;-72
2022/09/12 00:32:56;;;;;;;12.10;7.70;;;16.50;75.00;;;;;;5073248;28;20033;-72
2022/09/12 00:35:22;;;;;;;11.77;7.40;;;16.60;74.80;;;;;;5073233;28;20029;-72
2022/09/12 00:37:48;;;;;;;10.70;6.72;;;16.50;74.70;;;;;;5073329;28;20060;-72
2022/09/12 00:40:14;;;;;;;10.65;6.40;;;16.40;74.80;;;;;;5072445;28;20093;-72
2022/09/12 00:42:40;;;;;;;11.00;6.53;;;16.40;74.80;;;;;;5073223;28;20033;-72
2022/09/12 00:45:18;;;;;;;8.93;5.60;;;16.30;75.40;;;;;;5073163;28;20033;-72
2022/09/12 00:47:44;;;;;;;10.02;6.70;;;16.20;75.30;;;;;;5073190;28;20043;-72
2022/09/12 00:50:13;;;;;;;9.10;5.85;;;16.20;75.50;;;;;;5073084;28;20036;-72
2022/09/12 00:52:44;;;;;;;10.65;6.10;;;16.30;75.10;;;;;;5073096;28;20021;-73
2022/09/12 00:55:14;;;;;;;8.60;5.78;;;16.10;75.40;;;;;;5073099;28;20032;-72
2022/09/12 00:58:00;;;;;;;12.27;6.30;;;16.10;75.50;;;;;;5073058;28;20032;-72
2022/09/12 01:00:26;;;;;;;9.30;6.03;;;16.10;75.70;;;;;;5073196;28;20024;-72
2022/09/12 01:03:00;;;;;;;10.30;6.43;;;16.10;75.70;;;;;;5072974;28;20036;-72
2022/09/12 01:05:29;;;;;;;8.45;5.75;;;16.20;75.30;;;;;;5072813;28;20056;-72
2022/09/12 01:07:56;;;;;;;9.82;6.00;;;16.20;74.90;;;;;;5072844;28;20161;-72
2022/09/12 01:10:23;;;;;;;7.00;5.10;;;16.20;75.80;;;;;;5071924;28;20029;-72
2022/09/12 01:12:49;;;;;;;7.45;4.93;;;16.00;74.80;;;;;;5072898;28;20476;-72
2022/09/12 01:15:15;;;;;;;8.98;4.97;;;16.10;74.80;;;;;;5072865;28;20029;-72
2022/09/12 01:18:00;;;;;;;7.85;4.55;;;16.10;74.60;;;;;;5072801;28;20044;-73
2022/09/12 01:20:34;;;;;;;8.35;4.63;;;16.00;75.00;;;;;;5072843;28;20079;-73
2022/09/12 01:23:23;;;;;;;7.55;4.90;;;15.90;75.50;;;;;;5072850;28;20056;-73
2022/09/12 01:25:55;;;;;;;7.30;5.05;;;15.70;76.00;;;;;;5069514;28;20036;-72
2022/09/12 01:28:47;;;;;;;7.43;4.95;;;15.70;76.20;;;;;;5072571;28;20503;-73
2022/09/12 01:31:21;;;;;;;;;;;15.70;76.00;;;;;;5073156;28;20025;-72
2022/09/12 01:34:08;;;;;;;5.28;3.53;;;15.70;75.50;;;;;;5072780;28;19968;-72
2022/09/12 01:36:51;;;;;;;6.22;3.67;;;15.60;75.80;;;;;;5072690;28;20025;-72
2022/09/12 01:39:38;;;;;;;6.40;3.92;;;15.50;76.00;;;;;;5072809;28;20021;-72
2022/09/12 01:42:09;;;;;;;4.13;3.00;;;15.50;76.60;;;;;;5072773;28;20031;-72
2022/09/12 01:44:51;;;;;;;4.05;3.10;;;15.40;76.80;;;;;;5073232;28;20403;-72
2022/09/12 01:48:01;;;;;;;6.78;4.25;;;15.40;76.80;;;;;;5076240;28;20021;-72
2022/09/12 01:50:30;;;;;;;11.00;4.72;;;15.50;76.40;;;;;;5054556;28;20032;-71
2022/09/12 01:53:00;;;;;;;7.70;4.00;;;15.50;76.90;;;;;;5054480;28;20025;-72
2022/09/12 01:55:32;;;;;;;5.72;3.78;;;15.60;77.00;;;;;;5066655;28;20059;-72
2022/09/12 01:58:13;;;;;;;8.98;3.95;;;15.60;77.00;;;;;;5076248;28;20052;-73
2022/09/12 02:01:06;;;;;;;19.42;4.50;;;15.60;76.70;;;;;;5076047;28;20020;-72
2022/09/12 02:03:43;;;;;;;9.73;2.83;;;15.60;76.90;;;;;;5076043;28;20080;-72
2022/09/12 02:06:25;;;;;;;6.25;3.28;;;15.50;77.20;;;;;;5075824;28;20069;-72
2022/09/12 02:08:53;;;;;;;5.22;3.38;;;15.60;77.10;;;;;;5075976;28;20028;-73
2022/09/12 02:11:20;;;;;;;4.82;3.58;;;15.40;77.00;;;;;;5075948;28;20041;-72
2022/09/12 02:13:54;;;;;;;4.82;3.50;;;15.40;77.50;;;;;;5075926;28;20037;-72
2022/09/12 02:16:34;;;;;;;5.63;3.88;;;15.30;77.30;;;;;;5075747;28;20029;-72
2022/09/12 02:19:11;;;;;;;4.40;3.30;;;15.40;77.50;;;;;;5075736;28;20025;-73
2022/09/12 02:21:41;;;;;;;4.93;3.25;;;15.50;77.10;;;;;;5075683;28;20077;-73
2022/09/12 02:24:09;;;;;;;9.27;4.38;;;15.60;76.70;;;;;;5075558;28;20017;-72
2022/09/12 02:26:43;;;;;;;7.38;3.80;;;15.70;76.40;;;;;;5075550;28;20028;-72
2022/09/12 02:29:08;;;;;;;9.15;5.20;;;15.70;75.90;;;;;;5075383;28;20021;-73
2022/09/12 02:31:52;;;;;;;5.88;4.07;;;15.70;75.70;;;;;;5075415;28;20077;-72
2022/09/12 02:34:27;;;;;;;6.68;4.40;;;15.60;75.60;;;;;;5075562;28;20017;-72
2022/09/12 02:37:20;;;;;;;7.10;4.40;;;15.50;76.10;;;;;;5075385;28;20017;-73
2022/09/12 02:39:45;;;;;;;6.57;4.50;;;15.60;76.10;;;;;;5075487;28;20021;-72
2022/09/12 02:42:12;;;;;;;5.55;3.58;;;15.50;76.10;;;;;;5075261;28;20511;-72
2022/09/12 02:44:38;;;;;;;4.55;3.15;;;15.50;75.80;;;;;;5075173;28;20043;-72
2022/09/12 02:47:13;;;;;;;6.90;3.92;;;15.60;75.80;;;;;;5075111;28;20026;-72
2022/09/12 02:49:39;;;;;;;8.00;4.80;;;15.50;75.90;;;;;;5075127;28;20028;-72
2022/09/12 02:52:05;;;;;;;7.53;4.97;;;15.50;76.40;;;;;;5075058;28;20021;-73
2022/09/12 02:54:31;;;;;;;8.18;4.80;;;15.50;76.40;;;;;;5075016;28;20021;-72
2022/09/12 02:56:57;;;;;;;9.20;4.88;;;15.40;75.90;;;;;;5073970;28;20032;-72
2022/09/12 02:59:23;;;;;;;13.27;5.60;;;15.30;76.10;;;;;;5074942;28;20029;-73
2022/09/12 03:02:08;;;;;;;41.10;5.45;;;15.30;76.40;;;;;;5074873;28;20028;-72
2022/09/12 03:04:46;;;;;;;8.15;4.70;;;15.30;77.00;;;;;;5074802;28;20021;-72
2022/09/12 03:07:32;;;;;;;48.95;5.50;;;15.20;77.50;;;;;;5074573;28;20049;-72
2022/09/12 03:10:01;;;;;;;7.68;4.35;;;15.20;77.40;;;;;;5074701;28;20029;-72
2022/09/12 03:12:35;;;;;;;7.13;4.13;;;15.10;77.70;;;;;;5074770;28;20028;-72
2022/09/12 03:15:22;;;;;;;7.25;5.35;;;15.00;78.20;;;;;;5074766;28;20036;-72
2022/09/12 03:18:23;;;;;;;7.00;5.07;;;15.00;78.40;;;;;;5074577;28;20029;-72
2022/09/12 03:21:20;;;;;;;8.85;4.75;;;15.10;78.40;;;;;;5073213;28;20033;-72
2022/09/12 03:24:06;;;;;;;7.57;4.43;;;15.20;77.90;;;;;;5074483;28;20033;-72
2022/09/12 03:26:47;;;;;;;7.38;4.97;;;15.10;78.00;;;;;;5074580;28;20025;-72
2022/09/12 03:29:14;;;;;;;7.75;5.00;;;15.10;78.10;;;;;;5074283;28;20029;-72
2022/09/12 03:31:53;;;;;;;8.93;5.20;;;15.10;78.10;;;;;;5074307;28;20035;-72
2022/09/12 03:34:20;;;;;;;7.50;4.88;;;15.10;78.20;;;;;;5074251;28;20029;-72
2022/09/12 03:36:47;;;;;;;7.10;4.15;;;15.10;78.00;;;;;;5074165;28;20052;-72
2022/09/12 03:39:12;;;;;;;8.18;4.47;;;15.00;77.80;;;;;;5074309;28;20025;-72
2022/09/12 03:41:38;;;;;;;7.80;5.20;;;15.00;78.00;;;;;;5073204;28;20033;-72
2022/09/12 03:44:04;;;;;;;6.63;4.22;;;15.00;77.90;;;;;;5074067;28;20029;-72
2022/09/12 03:46:30;;;;;;;6.30;4.40;;;15.00;77.70;;;;;;5074020;28;20061;-72
2022/09/12 03:48:55;;;;;;;7.47;4.72;;;15.00;77.60;;;;;;5073847;28;20036;-72
2022/09/12 03:51:21;;;;;;;6.57;4.18;;;14.90;77.90;;;;;;5073937;28;20017;-72
2022/09/12 03:53:46;;;;;;;9.75;5.53;;;14.90;77.90;;;;;;5073909;28;20452;-72
2022/09/12 03:56:13;;;;;;;11.05;6.70;;;14.90;78.10;;;;;;5073822;28;20028;-72
2022/09/12 03:58:39;;;;;;;10.93;7.38;;;14.90;78.40;;;;;;5073785;28;20557;-73
2022/09/12 04:01:11;;;;;;;12.02;6.55;;;15.00;78.50;;;;;;5073747;28;20036;-73
2022/09/12 04:03:45;;;;;;;12.98;7.10;;;15.10;78.40;;;;;;5073735;28;20084;-73
2022/09/12 04:06:14;;;;;;;11.38;6.93;;;15.10;78.30;;;;;;5073381;28;20084;-73
2022/09/12 04:08:40;;;;;;;13.52;7.47;;;15.20;78.30;;;;;;5073315;28;20081;-73
2022/09/12 04:11:11;;;;;;;13.27;7.78;;;15.30;78.30;;;;;;5073574;28;20021;-73
2022/09/12 04:13:38;;;;;;;16.50;8.40;;;15.30;78.50;;;;;;5073562;28;20028;-73
2022/09/12 04:16:04;;;;;;;15.38;7.70;;;15.20;78.50;;;;;;5073483;28;20017;-73
2022/09/12 04:18:30;;;;;;;14.82;7.47;;;15.20;78.50;;;;;;5073479;28;20025;-73
2022/09/12 04:20:57;;;;;;;16.05;8.45;;;15.20;78.50;;;;;;5073450;28;20036;-73
2022/09/12 04:23:23;;;;;;;15.98;8.60;;;15.20;78.70;;;;;;5073382;28;20051;-73
2022/09/12 04:26:00;;;;;;;16.08;8.25;;;15.30;78.60;;;;;;5073345;28;20029;-73
2022/09/12 04:28:27;;;;;;;14.07;8.02;;;15.20;78.70;;;;;;5073152;28;20028;-73
2022/09/12 04:30:54;;;;;;;14.13;8.18;;;15.20;79.00;;;;;;5073341;28;20028;-73
2022/09/12 04:33:20;;;;;;;14.50;8.52;;;15.20;78.90;;;;;;5073291;28;20107;-73
2022/09/12 04:35:46;;;;;;;17.15;8.73;;;15.20;78.80;;;;;;5073206;28;20017;-73
2022/09/12 04:38:12;;;;;;;15.68;8.40;;;15.20;78.80;;;;;;5073213;28;20032;-73
2022/09/12 04:40:37;;;;;;;14.10;8.38;;;15.30;79.00;;;;;;5073324;28;20033;-73
2022/09/12 04:43:05;;;;;;;13.30;7.93;;;15.30;79.00;;;;;;5073155;28;20093;-72
2022/09/12 04:45:32;;;;;;;19.55;8.68;;;15.20;78.80;;;;;;5073119;28;20085;-73
2022/09/12 04:47:58;;;;;;;16.95;8.82;;;15.20;78.80;;;;;;5072990;28;20107;-73
2022/09/12 04:50:23;;;;;;;18.45;9.25;;;15.20;79.00;;;;;;5073072;28;20021;-73
2022/09/12 04:52:53;;;;;;;17.83;8.30;;;15.20;79.20;;;;;;5073071;28;20029;-73
2022/09/12 04:55:20;;;;;;;15.52;8.05;;;15.20;79.30;;;;;;5073197;28;20476;-73
2022/09/12 04:57:45;;;;;;;16.95;8.25;;;15.20;79.20;;;;;;5073024;28;20033;-73
2022/09/12 05:00:13;;;;;;;18.48;9.35;;;15.20;79.30;;;;;;5073021;28;20094;-73
2022/09/12 05:02:42;;;;;;;17.13;9.05;;;15.20;79.30;;;;;;5072995;28;20021;-73
2022/09/12 05:05:08;;;;;;;17.42;9.73;;;15.20;79.10;;;;;;5072776;28;20029;-73
2022/09/12 05:07:34;;;;;;;20.77;9.38;;;15.10;79.40;;;;;;5073005;28;20097;-73
2022/09/12 05:10:00;;;;;;;19.60;9.52;;;15.20;79.50;;;;;;5072871;28;20017;-73
2022/09/12 05:12:26;;;;;;;19.00;9.50;;;15.30;79.70;;;;;;5071997;28;20033;-73
2022/09/12 05:14:52;;;;;;;16.42;9.43;;;15.30;79.70;;;;;;5072867;28;20025;-73
2022/09/12 05:17:17;;;;;;;18.02;10.70;;;15.40;79.60;;;;;;5071971;28;20044;-73
2022/09/12 05:19:43;;;;;;;18.80;10.20;;;15.50;79.30;;;;;;5073695;28;20033;-73
2022/09/12 05:22:09;;;;;;;20.45;10.10;;;15.40;79.60;;;;;;5076768;28;20040;-73
2022/09/12 05:24:36;;;;;;;18.05;9.73;;;15.40;79.50;;;;;;5076714;28;20033;-73
2022/09/12 05:27:03;;;;;;;21.35;9.93;;;15.40;79.70;;;;;;5076596;28;20044;-73
2022/09/12 05:29:29;;;;;;;22.63;10.63;;;15.50;79.60;;;;;;5076516;28;20021;-73
2022/09/12 05:31:55;;;;;;;20.80;10.07;;;15.50;79.60;;;;;;5076538;28;20028;-73
2022/09/12 05:34:21;;;;;;;20.33;10.73;;;15.50;79.80;;;;;;5076545;28;20029;-73
2022/09/12 05:36:47;;;;;;;19.48;10.40;;;15.50;79.80;;;;;;5076493;28;20028;-73
2022/09/12 05:39:13;;;;;;;22.10;10.80;;;15.50;79.90;;;;;;5076592;28;20081;-73
2022/09/12 05:41:39;;;;;;;21.20;11.65;;;15.50;80.20;;;;;;5075415;28;20044;-72
2022/09/12 05:44:09;;;;;;;22.38;11.27;;;15.50;80.50;;;;;;5076336;28;20040;-73
2022/09/12 05:46:40;;;;;;;27.27;11.75;;;15.40;80.70;;;;;;5076383;28;20085;-73
2022/09/12 05:49:08;;;;;;;24.30;12.63;;;15.40;81.00;;;;;;5076195;28;20037;-73
2022/09/12 05:51:40;;;;;;;25.60;12.48;;;15.40;81.30;;;;;;5076226;28;20021;-72
2022/09/12 05:54:08;;;;;;;34.50;14.27;;;15.40;81.30;;;;;;5076256;28;20021;-72
2022/09/12 05:56:38;;;;;;;26.38;12.63;;;15.50;81.50;;;;;;5076149;28;20029;-72
2022/09/12 05:59:06;;;;;;;32.75;14.38;;;15.40;82.00;;;;;;5076217;28;20021;-73
2022/09/12 06:01:33;;;;;;;30.50;14.02;;;15.40;82.30;;;;;;5076009;28;20021;-73
2022/09/12 06:04:02;;;;;;;33.17;14.98;;;15.30;82.50;;;;;;5075989;28;20031;-73
2022/09/12 06:06:29;;;;;;;30.00;13.77;;;15.40;82.70;;;;;;5075733;28;20049;-73
2022/09/12 06:09:00;;;;;;;30.95;15.20;;;15.30;82.70;;;;;;5075793;28;20029;-73
2022/09/12 06:11:27;;;;;;;32.45;15.60;;;15.50;82.90;;;;;;5075809;28;20025;-72
2022/09/12 06:13:55;;;;;;;35.63;14.80;;;15.50;82.80;;;;;;5075745;28;20051;-71
2022/09/12 06:16:24;;;;;;;33.47;15.05;;;15.60;82.80;;;;;;5075743;28;20021;-72
2022/09/12 06:19:01;;;;;;;35.33;15.35;;;15.50;82.80;;;;;;5075705;28;20021;-72
2022/09/12 06:21:28;;;;;;;32.38;15.50;;;15.50;82.90;;;;;;5075839;28;20084;-72
2022/09/12 06:23:54;;;;;;;30.95;15.13;;;15.50;83.70;;;;;;5075698;28;20449;-72
2022/09/12 06:26:24;;;;;;;31.45;14.98;;;15.50;83.30;;;;;;5075551;28;20045;-72
2022/09/12 06:28:50;;;;;;;37.40;16.20;;;15.50;83.30;;;;;;5075367;28;20035;-73
2022/09/12 06:31:19;;;;;;;36.75;16.25;;;15.60;83.50;;;;;;5075364;28;20025;-72
2022/09/12 06:33:47;;;;;;;33.92;15.80;;;15.60;83.50;;;;;;5075401;28;20017;-72
2022/09/12 06:36:19;;;;;;;40.55;16.45;;;15.60;83.50;;;;;;5075381;28;20081;-73
2022/09/12 06:38:46;;;;;;;36.97;15.52;;;15.70;83.50;;;;;;5075395;28;20051;-72
2022/09/12 06:41:12;;;;;;;39.63;15.52;;;15.80;83.30;;;;;;5075242;28;20025;-72
2022/09/12 06:43:39;;;;;;;42.25;17.48;;;15.80;83.20;;;;;;5075248;28;20056;-72
2022/09/12 06:46:06;;;;;;;38.30;16.85;;;15.80;83.20;;;;;;5075180;28;20021;-72
2022/09/12 06:48:32;;;;;;;33.75;16.80;;;15.80;83.10;;;;;;5075072;28;20024;-72
2022/09/12 06:51:09;;;;;;;39.47;17.13;;;15.80;83.10;;;;;;5075098;28;20021;-72
2022/09/12 06:53:38;;;;;;;37.15;16.40;;;15.80;83.00;;;;;;5074204;28;20021;-71
2022/09/12 06:56:05;;;;;;;39.97;16.20;;;15.80;83.10;;;;;;5075161;28;20029;-72
2022/09/12 06:58:32;;;;;;;41.97;18.10;;;15.80;83.20;;;;;;5074935;28;20025;-72
2022/09/12 07:01:02;;;;;;;39.53;17.85;;;15.90;83.20;;;;;;5075064;28;20135;-72
2022/09/12 07:03:28;;;;;;;35.22;16.98;;;15.90;83.10;;;;;;5074834;28;20060;-71
2022/09/12 07:05:54;;;;;;;38.50;16.67;;;15.90;83.10;;;;;;5074700;28;20096;-72
2022/09/12 07:08:19;;;;;;;42.03;17.83;;;15.80;83.10;;;;;;5074649;28;20029;-71
2022/09/12 07:10:45;;;;;;;37.15;17.58;;;15.80;83.40;;;;;;5074738;28;20032;-72
2022/09/12 07:13:12;;;;;;;39.90;17.33;;;15.90;83.30;;;;;;5074682;28;20025;-72
2022/09/12 07:15:38;;;;;;;41.97;18.30;;;15.90;83.20;;;;;;5074606;28;20018;-72
2022/09/12 07:18:03;;;;;;;39.45;17.60;;;16.00;83.30;;;;;;5074543;28;20064;-72
2022/09/12 07:20:31;;;;;;;44.08;18.13;;;16.10;83.40;;;;;;5074548;28;20032;-71
2022/09/12 07:22:58;;;;;;;45.80;19.63;;;16.10;83.60;;;;;;5074490;28;20081;-72
2022/09/12 07:25:23;;;;;;;38.15;19.35;;;16.20;84.10;;;;;;5074441;28;20033;-72
2022/09/12 07:27:49;;;;;;;44.80;20.65;;;16.20;84.30;;;;;;5074323;28;20087;-72
2022/09/12 07:30:15;;;;;;;45.40;19.10;;;16.30;84.40;;;;;;5074269;28;20042;-72
2022/09/12 07:32:40;;;;;;;44.80;21.90;;;16.30;85.40;;;;;;5074323;28;20387;-72
2022/09/12 07:35:06;;;;;;;47.22;20.77;;;16.40;84.90;;;;;;5074247;28;20113;-72
2022/09/12 07:37:32;;;;;;;43.50;20.35;;;16.40;85.10;;;;;;5074201;28;20059;-72
2022/09/12 07:39:58;;;;;;;41.15;21.63;;;16.50;85.20;;;;;;5074258;28;20052;-72
2022/09/12 07:42:23;;;;;;;39.15;20.40;;;16.50;85.10;;;;;;5073723;28;20056;-71
2022/09/12 07:44:51;;;;;;;44.97;21.05;;;16.50;84.90;;;;;;5074068;28;20037;-72
2022/09/12 07:47:17;;;;;;;44.63;20.67;;;16.60;84.90;;;;;;5073951;28;20412;-72
2022/09/12 07:49:43;;;;;;;44.40;20.75;;;16.70;84.60;;;;;;5073961;28;20028;-71
2022/09/12 07:52:08;;;;;;;42.92;20.98;;;16.80;84.40;;;;;;5074081;28;20029;-71
2022/09/12 07:54:34;;;;;;;43.13;21.05;;;16.80;84.30;;;;;;5073874;28;20029;-71
2022/09/12 07:56:59;;;;;;;44.80;22.35;;;16.90;84.30;;;;;;5073846;28;20040;-71
2022/09/12 07:59:26;;;;;;;47.38;21.30;;;17.00;85.10;;;;;;5073797;28;20131;-71
2022/09/12 08:01:51;;;;;;;42.10;21.67;;;17.20;85.20;;;;;;5073765;28;20040;-71
2022/09/12 08:04:17;;;;;;;41.17;20.45;;;17.20;85.00;;;;;;5073697;28;20025;-71
2022/09/12 08:06:42;;;;;;;35.00;19.52;;;17.30;85.00;;;;;;5073701;28;20104;-72
2022/09/12 08:09:09;;;;;;;36.20;18.10;;;17.40;84.70;;;;;;5073570;28;20049;-72
2022/09/12 08:11:34;;;;;;;35.95;18.98;;;17.50;84.30;;;;;;5073719;28;20017;-72
2022/09/12 08:14:01;;;;;;;37.13;19.02;;;17.50;84.60;;;;;;5073553;28;20056;-72
2022/09/12 08:16:29;;;;;;;37.55;19.17;;;17.60;84.90;;;;;;5073501;28;20032;-72
2022/09/12 08:18:55;;;;;;;36.05;17.90;;;17.60;84.40;;;;;;5073518;28;20036;-72
2022/09/12 08:21:27;;;;;;;32.95;16.83;;;17.70;84.50;;;;;;5073544;28;20029;-72
2022/09/12 08:23:55;;;;;;;31.95;16.65;;;17.80;84.20;;;;;;5073612;28;20017;-72
2022/09/12 08:26:21;;;;;;;28.95;16.42;;;17.90;84.30;;;;;;5073390;28;20017;-72
2022/09/12 08:28:47;;;;;;;29.88;16.35;;;17.80;83.80;;;;;;5073172;28;20083;-72
2022/09/12 08:31:15;;;;;;;28.13;15.63;;;17.90;83.50;;;;;;5073320;28;20033;-72
2022/09/12 08:33:41;;;;;;;31.65;16.70;;;17.90;83.50;;;;;;5073300;28;20021;-72
2022/09/12 08:36:09;;;;;;;31.80;15.38;;;18.00;83.40;;;;;;5073268;28;20025;-72
2022/09/12 08:38:36;;;;;;;30.38;15.63;;;18.00;83.00;;;;;;5073200;28;20039;-72
2022/09/12 08:41:17;;;;;;;29.52;14.90;;;18.20;83.20;;;;;;5073192;28;20047;-72
2022/09/12 08:43:52;;;;;;;27.00;14.85;;;18.40;83.30;;;;;;5073165;28;20031;-72
2022/09/12 08:46:23;;;;;;;26.40;14.98;;;18.50;82.70;;;;;;5073170;28;20025;-72
2022/09/12 08:48:50;;;;;;;28.20;14.68;;;18.60;82.00;;;;;;5073253;28;20071;-73
2022/09/12 08:51:19;;;;;;;26.77;14.50;;;18.70;81.70;;;;;;5073103;28;20082;-72
2022/09/12 08:53:47;;;;;;;27.45;16.23;;;18.70;81.40;;;;;;5073144;28;20099;-72
2022/09/12 08:56:14;;;;;;;27.33;14.85;;;18.90;81.10;;;;;;5075538;28;20017;-72
2022/09/12 08:58:43;;;;;;;27.13;15.00;;;18.90;80.40;;;;;;5076225;28;20490;-72
2022/09/12 09:01:24;;;;;;;25.40;14.88;;;18.90;79.80;;;;;;5077183;28;20087;-72
2022/09/12 09:04:16;;;;;;;29.00;15.37;;;19.10;80.20;;;;;;5077130;28;20025;-72
2022/09/12 09:07:06;;;;;;;24.75;15.20;;;19.20;80.10;;;;;;5076907;28;20045;-72
2022/09/12 09:10:06;;;;;;;27.33;15.68;;;19.30;79.30;;;;;;5077058;28;20044;-72
2022/09/12 09:12:32;;;;;;;30.77;15.73;;;19.40;79.10;;;;;;5077026;28;20024;-72
2022/09/12 09:15:22;;;;;;;26.98;14.88;;;19.50;79.20;;;;;;5076879;28;20025;-72
2022/09/12 09:17:52;;;;;;;27.73;15.30;;;19.60;78.20;;;;;;5077077;28;20084;-72
2022/09/12 09:20:40;;;;;;;27.98;16.20;;;19.80;78.90;;;;;;5076881;28;20076;-72
2022/09/12 09:23:16;;;;;;;24.13;14.70;;;19.90;78.30;;;;;;5076927;28;20023;-72
2022/09/12 09:25:48;;;;;;;27.67;15.25;;;20.00;77.70;;;;;;5076906;28;20017;-72
2022/09/12 09:28:21;;;;;;;25.30;14.68;;;20.00;77.90;;;;;;5076587;28;20025;-72
2022/09/12 09:30:48;;;;;;;24.73;15.23;;;20.20;77.20;;;;;;5076703;28;20025;-72
2022/09/12 09:33:27;;;;;;;27.02;15.63;;;20.30;76.50;;;;;;5076565;28;20017;-73
2022/09/12 09:36:01;;;;;;;25.67;14.45;;;20.40;76.00;;;;;;5076613;28;20017;-72
2022/09/12 09:38:32;;;;;;;21.70;13.65;;;20.50;76.80;;;;;;5076571;28;20033;-72
2022/09/12 09:41:19;;;;;;;23.53;14.20;;;20.70;75.30;;;;;;5076579;28;20029;-72
2022/09/12 09:43:44;;;;;;;25.90;14.55;;;20.80;74.60;;;;;;5076472;28;20035;-72
2022/09/12 09:46:12;;;;;;;19.98;12.02;;;20.80;74.90;;;;;;5076374;28;20029;-72
2022/09/12 09:48:43;;;;;;;18.33;10.63;;;20.90;73.80;;;;;;5076278;28;20021;-72
2022/09/12 09:51:09;;;;;;;21.08;11.70;;;21.10;73.80;;;;;;5076421;28;20013;-72
2022/09/12 09:53:47;;;;;;;19.23;11.45;;;21.10;73.50;;;;;;5076294;28;20025;-72
2022/09/12 09:56:38;;;;;;;18.95;11.63;;;21.30;72.90;;;;;;5076191;28;20017;-72
2022/09/12 09:59:32;;;;;;;18.15;11.38;;;21.40;72.00;;;;;;5076176;28;20028;-73
2022/09/12 10:02:11;;;;;;;22.38;11.75;;;21.40;73.80;;;;;;5073825;28;20045;-73
2022/09/12 10:04:53;;;;;;;16.45;10.00;;;21.40;71.70;;;;;;5076012;28;20093;-73
2022/09/12 10:07:20;;;;;;;16.00;9.65;;;21.50;70.40;;;;;;5075295;28;20041;-72
2022/09/12 10:10:13;;;;;;;12.90;8.52;;;21.60;70.80;;;;;;5076036;28;20128;-72
2022/09/12 10:12:38;;;;;;;;;;;21.60;67.70;;;;;;5076311;28;20028;-72
2022/09/12 10:15:19;;;;;;;14.20;8.70;;;21.60;67.00;;;;;;5075822;28;19909;-72
2022/09/12 10:17:48;;;;;;;14.43;8.95;;;21.80;68.40;;;;;;5075856;28;20031;-72
2022/09/12 10:20:39;;;;;;;15.85;9.20;;;21.90;68.00;;;;;;5075748;28;20041;-72
2022/09/12 10:23:35;;;;;;;16.08;9.60;;;21.80;67.80;;;;;;5075731;28;20052;-73
2022/09/12 10:26:04;;;;;;;12.07;8.10;;;21.90;68.50;;;;;;5075651;28;20474;-72
2022/09/12 10:28:50;;;;;;;15.02;9.23;;;22.00;68.30;;;;;;5075388;28;20075;-73
2022/09/12 10:31:30;;;;;;;13.95;8.63;;;22.20;67.20;;;;;;5075532;28;20017;-73
2022/09/12 10:33:58;;;;;;;13.38;9.20;;;22.20;67.50;;;;;;5075541;28;20045;-72
2022/09/12 10:36:25;;;;;;;15.20;9.20;;;22.20;67.00;;;;;;5075389;28;20025;-72
2022/09/12 10:38:59;;;;;;;13.30;7.93;;;22.30;68.20;;;;;;5075373;28;20036;-72
2022/09/12 10:41:25;;;;;;;15.65;8.40;;;22.40;67.70;;;;;;5075436;28;20111;-73
2022/09/12 10:43:51;;;;;;;12.68;8.23;;;22.50;67.30;;;;;;5075284;28;20471;-72
2022/09/12 10:46:19;;;;;;;10.93;6.97;;;22.60;66.90;;;;;;5075200;28;20040;-73
2022/09/12 10:48:50;;;;;;;11.23;7.32;;;22.60;64.70;;;;;;5075109;28;20133;-72
2022/09/12 10:51:28;;;;;;;13.70;7.88;;;22.60;64.90;;;;;;5075221;28;20084;-72
2022/09/12 10:54:01;;;;;;;11.57;7.70;;;22.80;65.90;;;;;;5075121;28;20055;-72
2022/09/12 10:56:31;;;;;;;12.85;7.10;;;22.90;64.40;;;;;;5075106;28;20024;-72
2022/09/12 10:59:15;;;;;;;11.48;7.53;;;23.00;64.00;;;;;;5074988;28;20037;-73
2022/09/12 11:01:52;;;;;;;12.52;7.65;;;23.00;61.50;;;;;;5074919;28;20430;-72
2022/09/12 11:04:40;;;;;;;13.27;7.45;;;22.90;63.60;;;;;;5075064;28;20055;-72
2022/09/12 11:07:31;;;;;;;12.68;7.18;;;23.00;62.90;;;;;;5074698;28;20044;-72
2022/09/12 11:10:20;;;;;;;12.10;7.28;;;23.00;63.00;;;;;;5074836;28;20056;-72
2022/09/12 11:13:06;;;;;;;11.77;7.43;;;23.10;63.20;;;;;;5074795;28;20017;-72
2022/09/12 11:15:38;;;;;;;11.40;6.93;;;23.10;61.30;;;;;;5074711;28;20025;-72
2022/09/12 11:18:22;;;;;;;9.95;6.80;;;23.10;62.00;;;;;;5073941;28;20095;-72
2022/09/12 11:20:53;;;;;;;11.95;7.60;;;23.20;62.40;;;;;;5074633;28;20036;-72
2022/09/12 11:23:43;;;;;;;9.25;6.43;;;23.30;62.70;;;;;;5074568;28;20036;-72
2022/09/12 11:26:27;;;;;;;12.23;7.43;;;23.40;63.00;;;;;;5074611;28;20079;-72
2022/09/12 11:29:02;;;;;;;10.93;6.65;;;23.50;62.40;;;;;;5074427;28;20029;-72
2022/09/12 11:31:55;;;;;;;10.43;5.60;;;23.60;60.90;;;;;;5073353;28;20028;-72
2022/09/12 11:34:31;;;;;;;8.60;6.30;;;23.60;61.30;;;;;;5074321;28;20028;-72
2022/09/12 11:37:10;;;;;;;11.48;6.68;;;23.70;59.00;;;;;;5074303;28;20029;-72
2022/09/12 11:39:40;;;;;;;14.05;6.22;;;23.70;59.60;;;;;;5074249;28;20046;-72
2022/09/12 11:42:27;;;;;;;8.05;5.22;;;23.70;58.90;;;;;;5074171;28;20384;-72
2022/09/12 11:45:12;;;;;;;10.13;5.93;;;23.60;58.50;;;;;;5074284;28;20017;-71
2022/09/12 11:47:40;;;;;;;8.82;4.70;;;23.70;58.00;;;;;;5074066;28;20047;-72
2022/09/12 11:50:27;;;;;;;8.10;4.95;;;23.70;59.00;;;;;;5074015;28;20038;-71
2022/09/12 11:52:58;;;;;;;7.68;4.18;;;23.80;58.20;;;;;;5073940;28;20028;-72
2022/09/12 11:55:28;;;;;;;6.93;4.78;;;23.90;58.00;;;;;;5074006;28;20024;-72
2022/09/12 11:57:57;;;;;;;6.32;3.97;;;24.00;56.70;;;;;;5073873;28;20025;-72
2022/09/12 12:00:49;;;;;;;6.97;4.03;;;24.00;56.00;;;;;;5073810;28;20029;-72
2022/09/12 12:03:42;;;;;;;6.93;5.00;;;24.10;57.10;;;;;;5073625;28;20419;-72
2022/09/12 12:06:25;;;;;;;7.72;4.47;;;24.10;55.20;;;;;;5073604;28;20048;-72
2022/09/12 12:08:51;;;;;;;7.38;4.50;;;24.20;58.80;;;;;;5073691;28;20044;-72
2022/09/12 12:11:33;;;;;;;7.93;4.88;;;24.30;59.20;;;;;;5073613;28;20044;-72
2022/09/12 12:14:03;;;;;;;5.10;3.67;;;24.30;55.20;;;;;;5072668;28;20021;-71
2022/09/12 12:16:39;;;;;;;6.38;4.00;;;24.40;57.20;;;;;;5073619;28;20021;-72
2022/09/12 12:19:30;;;;;;;6.22;4.05;;;24.50;55.60;;;;;;5073585;28;20063;-72
2022/09/12 12:22:18;;;;;;;6.18;3.70;;;24.40;54.60;;;;;;5073538;28;20025;-72
2022/09/12 12:25:05;;;;;;;6.32;3.58;;;24.50;55.60;;;;;;5073494;28;20028;-72
2022/09/12 12:27:54;;;;;;;4.38;3.22;;;24.50;54.90;;;;;;5073376;28;20551;-72
2022/09/12 12:30:28;;;;;;;5.43;3.15;;;24.50;51.80;;;;;;5073207;28;20056;-72
2022/09/12 12:33:09;;;;;;;5.93;3.33;;;24.50;54.10;;;;;;5073325;28;20029;-72
2022/09/12 12:35:39;;;;;;;5.85;3.50;;;24.50;54.30;;;;;;5073285;28;20032;-72
2022/09/12 12:38:26;;;;;;;5.57;3.10;;;24.60;51.50;;;;;;5073363;28;20025;-72
2022/09/12 12:40:52;;;;;;;4.75;2.88;;;24.50;52.20;;;;;;5073230;28;20017;-72
2022/09/12 12:43:31;;;;;;;5.68;3.30;;;24.50;54.10;;;;;;5073215;28;20032;-72
2022/09/12 12:46:08;;;;;;;6.25;3.67;;;24.60;50.50;;;;;;5073209;28;20043;-72
2022/09/12 12:48:44;;;;;;;6.28;3.83;;;24.60;49.60;;;;;;5073259;28;20033;-72
2022/09/12 12:51:42;;;;;;;6.22;3.55;;;24.50;51.20;;;;;;5073203;28;20051;-72
2022/09/12 12:54:30;;;;;;;6.40;4.22;;;24.60;51.80;;;;;;5065830;28;20498;-72
2022/09/12 12:57:21;;;;;;;6.72;3.60;;;24.70;52.80;;;;;;5073109;28;20017;-72
2022/09/12 12:59:49;;;;;;;4.55;3.22;;;24.60;52.70;;;;;;5073040;28;20061;-72
2022/09/12 13:03:00;;;;;;;4.82;3.40;;;24.60;51.90;;;;;;5073016;28;20033;-72
2022/09/12 13:05:28;;;;;;;5.18;3.65;;;24.70;52.10;;;;;;5070365;28;20048;-72